createdAt,value
2022-11-08T00:01:10.960Z,5.60
2022-11-08T00:03:37.565Z,5.50
2022-11-08T00:06:04.235Z,5.50
2022-11-08T00:08:30.815Z,5.50
2022-11-08T00:11:02.904Z,5.50
2022-11-08T00:13:29.492Z,5.50
2022-11-08T00:15:56.073Z,5.50
2022-11-08T00:18:22.649Z,5.40
2022-11-08T00:20:49.241Z,5.40
2022-11-08T00:23:15.820Z,5.40
2022-11-08T00:25:42.398Z,5.40
2022-11-08T00:28:08.992Z,5.40
2022-11-08T00:30:35.610Z,5.30
2022-11-08T00:33:02.206Z,5.30
2022-11-08T00:35:28.791Z,5.20
2022-11-08T00:37:55.392Z,5.20
2022-11-08T00:40:21.960Z,5.20
2022-11-08T00:42:48.541Z,5.20
2022-11-08T00:45:15.279Z,5.20
2022-11-08T00:47:41.866Z,5.10
2022-11-08T00:50:08.819Z,5.10
2022-11-08T00:52:35.396Z,5.10
2022-11-08T00:55:01.995Z,5.20
2022-11-08T00:57:41.161Z,5.10
2022-11-08T01:00:15.442Z,5.10
2022-11-08T01:02:42.045Z,5.10
2022-11-08T01:05:09.002Z,5.00
2022-11-08T01:07:35.609Z,5.10
2022-11-08T01:10:02.230Z,5.00
2022-11-08T01:12:29.228Z,5.00
2022-11-08T01:14:55.831Z,4.90
2022-11-08T01:17:22.461Z,4.90
2022-11-08T01:19:49.067Z,4.90
2022-11-08T01:22:15.681Z,4.90
2022-11-08T01:24:42.259Z,4.90
2022-11-08T01:27:08.858Z,4.90
2022-11-08T01:29:35.456Z,4.90
2022-11-08T01:32:02.035Z,4.90
2022-11-08T01:34:28.620Z,4.90
2022-11-08T01:36:55.204Z,4.90
2022-11-08T01:39:21.782Z,4.80
2022-11-08T01:41:48.382Z,4.80
2022-11-08T01:44:16.987Z,4.80
2022-11-08T01:46:45.637Z,4.80
2022-11-08T01:49:23.881Z,4.70
2022-11-08T01:52:02.668Z,4.70
2022-11-08T01:54:42.880Z,4.80
2022-11-08T01:57:14.630Z,4.80
2022-11-08T01:59:44.085Z,4.70
2022-11-08T02:02:12.052Z,4.70
2022-11-08T02:04:41.868Z,4.70
2022-11-08T02:07:10.839Z,4.70
2022-11-08T02:09:39.971Z,4.60
2022-11-08T02:12:08.613Z,4.60
2022-11-08T02:14:37.097Z,4.60
2022-11-08T02:17:04.541Z,4.60
2022-11-08T02:19:40.312Z,4.50
2022-11-08T02:22:22.560Z,4.50
2022-11-08T02:24:49.222Z,4.50
2022-11-08T02:27:15.878Z,4.50
2022-11-08T02:29:42.624Z,4.50
2022-11-08T02:32:09.604Z,4.50
2022-11-08T02:34:51.192Z,4.40
2022-11-08T02:37:19.760Z,4.50
2022-11-08T02:39:46.614Z,4.40
2022-11-08T02:42:14.620Z,4.50
2022-11-08T02:44:41.215Z,4.40
2022-11-08T02:47:07.801Z,4.40
2022-11-08T02:49:34.400Z,4.40
2022-11-08T02:52:00.957Z,4.40
2022-11-08T02:54:27.607Z,4.40
2022-11-08T02:56:54.228Z,4.30
2022-11-08T02:59:20.831Z,4.30
2022-11-08T03:01:47.531Z,4.30
2022-11-08T03:04:14.458Z,4.30
2022-11-08T03:06:41.091Z,4.20
2022-11-08T03:09:07.874Z,4.20
2022-11-08T03:11:34.451Z,4.10
2022-11-08T03:14:01.040Z,4.20
2022-11-08T03:16:27.716Z,4.20
2022-11-08T03:18:54.306Z,4.00
2022-11-08T03:21:21.169Z,4.10
2022-11-08T03:23:47.759Z,4.00
2022-11-08T03:26:14.374Z,4.00
2022-11-08T03:28:40.957Z,4.10
2022-11-08T03:31:07.764Z,4.10
2022-11-08T03:33:34.421Z,4.10
2022-11-08T03:36:01.094Z,4.10
2022-11-08T03:38:27.720Z,4.10
2022-11-08T03:40:54.313Z,4.10
2022-11-08T03:43:20.971Z,4.00
2022-11-08T03:45:47.547Z,4.10
2022-11-08T03:48:14.155Z,4.10
2022-11-08T03:50:40.728Z,4.00
2022-11-08T03:53:07.409Z,4.10
2022-11-08T03:55:34.028Z,4.10
2022-11-08T03:58:00.621Z,4.00
2022-11-08T04:00:28.737Z,4.00
2022-11-08T04:03:01.289Z,4.00
2022-11-08T04:05:27.868Z,4.00
2022-11-08T04:07:54.516Z,4.00
2022-11-08T04:10:21.111Z,3.90
2022-11-08T04:12:47.698Z,3.90
2022-11-08T04:15:17.049Z,4.00
2022-11-08T04:17:48.281Z,4.00
2022-11-08T04:20:14.966Z,3.90
2022-11-08T04:22:41.557Z,3.90
2022-11-08T04:25:08.447Z,3.90
2022-11-08T04:27:35.040Z,3.90
2022-11-08T04:30:01.650Z,3.90
2022-11-08T04:32:28.227Z,3.90
2022-11-08T04:34:54.812Z,3.90
2022-11-08T04:37:21.412Z,3.80
2022-11-08T04:39:47.994Z,3.80
2022-11-08T04:42:14.595Z,3.80
2022-11-08T04:44:41.168Z,3.80
2022-11-08T04:47:07.786Z,3.80
2022-11-08T04:49:34.361Z,3.70
2022-11-08T04:52:00.957Z,3.70
2022-11-08T04:54:27.536Z,3.80
2022-11-08T04:56:54.134Z,3.80
2022-11-08T04:59:20.762Z,3.80
2022-11-08T05:01:47.459Z,3.70
2022-11-08T05:04:14.158Z,3.70
2022-11-08T05:06:40.754Z,3.70
2022-11-08T05:09:07.494Z,3.70
2022-11-08T05:11:34.138Z,3.70
2022-11-08T05:14:00.747Z,3.60
2022-11-08T05:16:31.628Z,3.50
2022-11-08T05:18:58.681Z,3.60
2022-11-08T05:21:25.606Z,3.60
2022-11-08T05:23:52.207Z,3.60
2022-11-08T05:26:19.861Z,3.60
2022-11-08T05:28:47.045Z,3.50
2022-11-08T05:31:14.008Z,3.50
2022-11-08T05:33:40.960Z,3.50
2022-11-08T05:36:10.548Z,3.50
2022-11-08T05:38:37.764Z,3.50
2022-11-08T05:41:06.252Z,3.50
2022-11-08T05:43:33.126Z,3.60
2022-11-08T05:45:59.752Z,3.60
2022-11-08T05:48:26.577Z,3.50
2022-11-08T05:50:53.475Z,3.50
2022-11-08T05:53:20.565Z,3.50
2022-11-08T05:55:48.106Z,3.50
2022-11-08T05:58:15.252Z,3.50
2022-11-08T06:00:41.888Z,3.50
2022-11-08T06:03:08.552Z,3.50
2022-11-08T06:06:13.710Z,3.40
2022-11-08T06:08:41.873Z,3.40
2022-11-08T06:11:13.328Z,3.40
2022-11-08T06:13:40.510Z,3.30
2022-11-08T06:16:12.714Z,3.30
2022-11-08T06:18:40.103Z,3.30
2022-11-08T06:21:10.479Z,3.30
2022-11-08T06:23:37.062Z,3.30
2022-11-08T06:26:04.051Z,3.40
2022-11-08T06:28:30.759Z,3.40
2022-11-08T06:31:01.327Z,3.40
2022-11-08T06:33:28.447Z,3.40
2022-11-08T06:35:55.432Z,3.50
2022-11-08T06:38:22.572Z,3.40
2022-11-08T06:40:49.245Z,3.50
2022-11-08T06:43:19.620Z,3.50
2022-11-08T06:45:46.920Z,3.60
2022-11-08T06:48:13.499Z,3.60
2022-11-08T06:50:41.419Z,3.60
2022-11-08T06:53:10.610Z,3.60
2022-11-08T06:55:37.387Z,3.60
2022-11-08T06:58:05.979Z,3.70
2022-11-08T07:00:32.571Z,3.80
2022-11-08T07:03:01.484Z,4.00
2022-11-08T07:05:29.861Z,4.10
2022-11-08T07:08:00.797Z,4.20
2022-11-08T07:10:29.777Z,4.20
2022-11-08T07:13:09.966Z,4.30
2022-11-08T07:15:37.094Z,4.40
2022-11-08T07:18:06.852Z,4.40
2022-11-08T07:20:33.961Z,4.50
2022-11-08T07:23:00.730Z,4.60
2022-11-08T07:25:28.676Z,4.60
2022-11-08T07:27:59.503Z,4.70
2022-11-08T07:30:26.786Z,4.80
2022-11-08T07:32:54.450Z,5.00
2022-11-08T07:35:21.066Z,5.00
2022-11-08T07:37:47.714Z,5.10
2022-11-08T07:40:14.859Z,5.10
2022-11-08T07:43:05.199Z,5.20
2022-11-08T07:45:28.665Z,5.30
2022-11-08T07:48:09.511Z,5.50
2022-11-08T07:50:38.166Z,5.60
2022-11-08T07:53:04.806Z,5.60
2022-11-08T07:55:31.459Z,5.70
2022-11-08T07:57:59.393Z,5.70
2022-11-08T08:00:25.970Z,5.70
2022-11-08T08:03:00.076Z,5.80
2022-11-08T08:05:28.119Z,5.80
2022-11-08T08:07:59.377Z,5.90
2022-11-08T08:10:27.206Z,5.90
2022-11-08T08:12:54.285Z,5.90
2022-11-08T08:15:20.856Z,6.00
2022-11-08T08:17:47.476Z,6.10
2022-11-08T08:20:14.352Z,6.10
2022-11-08T08:22:48.649Z,6.30
2022-11-08T08:25:16.280Z,6.40
2022-11-08T08:27:50.512Z,6.50
2022-11-08T08:30:18.121Z,6.60
2022-11-08T08:32:47.938Z,6.70
2022-11-08T08:35:20.102Z,6.80
2022-11-08T08:37:46.689Z,6.90
2022-11-08T08:40:13.388Z,7.00
2022-11-08T08:42:39.981Z,7.30
2022-11-08T08:45:12.075Z,7.40
2022-11-08T08:47:41.215Z,7.40
2022-11-08T08:50:08.137Z,7.50
2022-11-08T08:52:34.718Z,7.50
2022-11-08T08:55:01.522Z,7.60
2022-11-08T08:57:28.109Z,7.80
2022-11-08T09:02:42.748Z,7.80
2022-11-08T09:05:11.013Z,7.90
2022-11-08T09:07:38.216Z,8.00
2022-11-08T09:10:06.413Z,8.00
2022-11-08T09:12:33.392Z,8.00
2022-11-08T09:15:00.067Z,8.10
2022-11-08T09:17:28.658Z,8.20
2022-11-08T09:19:57.268Z,8.30
2022-11-08T09:22:24.282Z,8.30
2022-11-08T09:24:50.898Z,8.40
2022-11-08T09:27:17.645Z,8.40
2022-11-08T09:29:44.241Z,8.40
2022-11-08T09:32:10.851Z,8.50
2022-11-08T09:34:37.424Z,8.60
2022-11-08T09:37:04.021Z,8.60
2022-11-08T09:39:30.625Z,8.60
2022-11-08T09:42:27.811Z,8.70
2022-11-08T09:45:06.335Z,8.90
2022-11-08T09:47:41.754Z,9.20
2022-11-08T09:50:21.101Z,9.20
2022-11-08T09:53:13.278Z,9.20
2022-11-08T09:55:56.703Z,9.20
2022-11-08T09:58:30.179Z,9.20
2022-11-08T10:00:56.918Z,9.30
2022-11-08T10:03:24.563Z,9.40
2022-11-08T10:06:09.741Z,9.50
2022-11-08T10:08:48.913Z,9.60
2022-11-08T10:11:26.842Z,9.80
2022-11-08T10:14:11.507Z,10.00
2022-11-08T10:17:11.521Z,10.10
2022-11-08T10:20:22.919Z,10.20
2022-11-08T10:22:58.011Z,10.20
2022-11-08T10:25:32.846Z,10.30
2022-11-08T10:28:00.825Z,10.30
2022-11-08T10:30:53.941Z,10.30
2022-11-08T10:33:43.982Z,10.40
2022-11-08T10:36:17.971Z,10.50
2022-11-08T10:38:51.896Z,10.50
2022-11-08T10:41:46.580Z,10.60
2022-11-08T10:44:18.046Z,10.80
2022-11-08T10:46:47.222Z,10.90
2022-11-08T10:49:26.984Z,11.00
2022-11-08T10:51:56.282Z,11.10
2022-11-08T10:54:42.281Z,11.10
2022-11-08T10:57:14.092Z,11.20
2022-11-08T10:59:41.325Z,11.20
2022-11-08T11:02:22.956Z,11.20
2022-11-08T11:04:50.869Z,11.30
2022-11-08T11:07:28.612Z,11.50
2022-11-08T11:09:55.197Z,11.80
2022-11-08T11:12:21.850Z,12.00
2022-11-08T11:14:58.253Z,12.40
2022-11-08T11:17:34.259Z,12.70
2022-11-08T11:20:04.426Z,13.00
2022-11-08T11:22:34.262Z,13.30
2022-11-08T11:25:13.444Z,13.60
2022-11-08T11:27:41.721Z,13.70
2022-11-08T11:30:27.128Z,13.90
2022-11-08T11:33:22.981Z,14.10
2022-11-08T11:35:54.912Z,14.30
2022-11-08T11:38:49.667Z,14.20
2022-11-08T11:41:36.172Z,14.10
2022-11-08T11:44:26.898Z,14.40
2022-11-08T11:47:34.000Z,14.60
2022-11-08T11:50:15.595Z,14.80
2022-11-08T11:52:42.232Z,15.00
2022-11-08T11:55:14.669Z,15.10
2022-11-08T11:57:56.196Z,15.40
2022-11-08T12:00:23.000Z,15.60
2022-11-08T12:03:07.341Z,15.70
2022-11-08T12:06:05.027Z,15.80
2022-11-08T12:08:37.226Z,15.90
2022-11-08T12:11:06.770Z,16.00
2022-11-08T12:14:02.689Z,16.30
2022-11-08T12:16:37.969Z,16.20
2022-11-08T12:20:05.549Z,16.40
2022-11-08T12:22:35.102Z,16.20
2022-11-08T12:25:25.627Z,15.70
2022-11-08T12:28:00.402Z,15.60
2022-11-08T12:30:36.172Z,15.70
2022-11-08T12:33:21.382Z,15.90
2022-11-08T12:35:58.983Z,15.70
2022-11-08T12:38:46.555Z,15.90
2022-11-08T12:41:13.077Z,16.10
2022-11-08T12:43:53.418Z,16.10
2022-11-08T12:46:21.042Z,16.10
2022-11-08T12:49:05.520Z,16.10
2022-11-08T12:51:53.546Z,15.80
2022-11-08T12:54:30.856Z,15.60
2022-11-08T12:57:02.222Z,15.50
2022-11-08T12:59:45.509Z,15.30
2022-11-08T13:02:23.038Z,15.20
2022-11-08T13:05:02.040Z,15.00
2022-11-08T13:07:28.587Z,14.80
2022-11-08T13:10:14.418Z,14.80
2022-11-08T13:12:54.558Z,14.80
2022-11-08T13:15:24.130Z,14.70
2022-11-08T13:18:06.091Z,14.70
2022-11-08T13:20:44.918Z,14.60
2022-11-08T13:23:14.070Z,14.60
2022-11-08T13:25:42.841Z,14.60
2022-11-08T13:28:46.800Z,14.50
2022-11-08T13:31:27.556Z,14.50
2022-11-08T13:34:16.898Z,14.50
2022-11-08T13:37:28.400Z,14.50
2022-11-08T13:40:13.058Z,14.50
2022-11-08T13:42:59.954Z,14.60
2022-11-08T13:45:34.723Z,14.50
2022-11-08T13:48:22.754Z,14.60
2022-11-08T13:50:56.490Z,14.60
2022-11-08T13:53:27.218Z,14.60
2022-11-08T13:55:57.557Z,14.60
2022-11-08T13:58:42.288Z,14.60
2022-11-08T14:01:21.121Z,14.60
2022-11-08T14:03:47.734Z,14.60
2022-11-08T14:06:38.687Z,14.50
2022-11-08T14:09:21.294Z,14.50
2022-11-08T14:12:11.784Z,14.40
2022-11-08T14:14:47.101Z,14.20
2022-11-08T14:17:36.211Z,14.10
2022-11-08T14:20:27.070Z,14.00
2022-11-08T14:22:53.966Z,13.90
2022-11-08T14:25:33.842Z,13.80
2022-11-08T14:28:00.798Z,13.70
2022-11-08T14:30:27.558Z,13.70
2022-11-08T14:33:27.471Z,13.60
2022-11-08T14:36:06.673Z,13.60
2022-11-08T14:38:45.103Z,13.60
2022-11-08T14:41:16.446Z,13.60
2022-11-08T14:43:45.344Z,13.60
2022-11-08T14:46:34.997Z,13.60
2022-11-08T14:49:13.484Z,13.60
2022-11-08T14:51:43.367Z,13.50
2022-11-08T14:54:21.538Z,13.50
2022-11-08T14:56:48.714Z,13.40
2022-11-08T14:59:15.351Z,13.30
2022-11-08T15:01:47.089Z,13.30
2022-11-08T15:04:17.018Z,13.30
2022-11-08T15:06:46.869Z,13.20
2022-11-08T15:09:29.541Z,13.20
2022-11-08T15:11:59.420Z,13.20
2022-11-08T15:14:28.402Z,13.20
2022-11-08T15:17:01.711Z,13.20
2022-11-08T15:19:39.770Z,13.20
2022-11-08T15:22:30.938Z,13.20
2022-11-08T15:25:13.601Z,13.20
2022-11-08T15:27:47.732Z,13.10
2022-11-08T15:30:18.500Z,13.10
2022-11-08T15:32:45.288Z,13.20
2022-11-08T15:35:26.831Z,13.10
2022-11-08T15:38:03.896Z,13.20
2022-11-08T15:40:32.457Z,13.10
2022-11-08T15:42:59.822Z,13.00
2022-11-08T15:45:31.767Z,12.90
2022-11-08T15:48:19.758Z,12.80
2022-11-08T15:50:46.637Z,12.80
2022-11-08T15:53:13.300Z,12.80
2022-11-08T15:55:54.912Z,12.70
2022-11-08T15:58:30.231Z,12.50
2022-11-08T16:00:59.793Z,12.30
2022-11-08T16:03:27.547Z,12.20
2022-11-08T16:05:54.172Z,12.00
2022-11-08T16:08:21.196Z,11.90
2022-11-08T16:10:49.473Z,11.80
2022-11-08T16:13:17.209Z,11.70
2022-11-08T16:15:43.937Z,11.70
2022-11-08T16:18:11.413Z,11.60
2022-11-08T16:20:38.968Z,11.50
2022-11-08T16:23:10.867Z,11.40
2022-11-08T16:25:45.101Z,11.30
2022-11-08T16:28:19.797Z,11.20
2022-11-08T16:30:46.901Z,11.10
2022-11-08T16:33:22.896Z,11.10
2022-11-08T16:35:50.334Z,11.00
2022-11-08T16:38:28.041Z,11.00
2022-11-08T16:40:55.620Z,11.00
2022-11-08T16:43:22.216Z,10.90
2022-11-08T16:46:04.875Z,10.90
2022-11-08T16:48:32.933Z,10.80
2022-11-08T16:51:05.124Z,10.80
2022-11-08T16:53:32.054Z,10.70
2022-11-08T16:55:58.661Z,10.70
2022-11-08T16:58:26.342Z,10.70
2022-11-08T17:00:53.048Z,10.60
2022-11-08T17:03:22.321Z,10.60
2022-11-08T17:05:49.156Z,10.50
2022-11-08T17:08:16.375Z,10.40
2022-11-08T17:10:43.214Z,10.40
2022-11-08T17:13:17.671Z,10.40
2022-11-08T17:15:44.497Z,10.40
2022-11-08T17:18:13.937Z,10.40
2022-11-08T17:20:41.431Z,10.40
2022-11-08T17:23:08.764Z,10.40
2022-11-08T17:25:36.995Z,10.40
2022-11-08T17:28:03.778Z,10.30
2022-11-08T17:30:30.381Z,10.40
2022-11-08T17:32:56.990Z,10.30
2022-11-08T17:35:23.588Z,10.30
2022-11-08T17:37:50.177Z,10.30
2022-11-08T17:40:16.800Z,10.30
2022-11-08T17:42:43.396Z,10.20
2022-11-08T17:45:10.810Z,10.20
2022-11-08T17:47:38.170Z,10.20
2022-11-08T17:50:06.221Z,10.20
2022-11-08T17:52:33.059Z,10.20
2022-11-08T17:54:59.659Z,10.20
2022-11-08T17:57:26.243Z,10.10
2022-11-08T17:59:52.878Z,10.10
2022-11-08T18:02:19.534Z,10.10
2022-11-08T18:04:46.277Z,10.10
2022-11-08T18:07:12.956Z,10.10
2022-11-08T18:09:39.738Z,10.10
2022-11-08T18:12:06.481Z,10.00
2022-11-08T18:14:33.213Z,10.00
2022-11-08T18:16:59.823Z,10.00
2022-11-08T18:19:26.707Z,9.90
2022-11-08T18:21:53.327Z,9.90
2022-11-08T18:24:20.233Z,9.80
2022-11-08T18:26:46.868Z,9.80
2022-11-08T18:29:13.601Z,9.80
2022-11-08T18:31:40.297Z,9.80
2022-11-08T18:34:06.883Z,9.80
2022-11-08T18:36:33.466Z,9.70
2022-11-08T18:39:00.699Z,9.70
2022-11-08T18:41:30.482Z,9.70
2022-11-08T18:43:58.571Z,9.70
2022-11-08T18:46:26.988Z,9.80
2022-11-08T18:48:53.917Z,9.80
2022-11-08T18:51:22.229Z,9.70
2022-11-08T18:53:49.640Z,9.70
2022-11-08T18:56:16.288Z,9.70
2022-11-08T18:58:44.192Z,9.60
2022-11-08T19:01:10.908Z,9.60
2022-11-08T19:03:37.874Z,9.60
2022-11-08T19:06:04.736Z,9.60
2022-11-08T19:08:32.805Z,9.60
2022-11-08T19:11:02.145Z,9.50
2022-11-08T19:13:31.328Z,9.50
2022-11-08T19:16:04.775Z,9.50
2022-11-08T19:18:32.551Z,9.50
2022-11-08T19:21:22.510Z,9.50
2022-11-08T19:23:50.363Z,9.50
2022-11-08T19:26:22.805Z,9.50
2022-11-08T19:28:50.886Z,9.50
2022-11-08T19:31:19.396Z,9.50
2022-11-08T19:33:47.150Z,9.40
2022-11-08T19:36:19.716Z,9.40
2022-11-08T19:38:46.420Z,9.40
2022-11-08T19:41:16.241Z,9.40
2022-11-08T19:43:43.536Z,9.30
2022-11-08T19:46:27.813Z,9.30
2022-11-08T19:48:54.804Z,9.20
2022-11-08T19:51:26.546Z,9.10
2022-11-08T19:54:04.859Z,9.10
2022-11-08T19:59:18.250Z,8.90
2022-11-08T20:01:44.908Z,8.90
2022-11-08T20:04:12.311Z,8.80
2022-11-08T20:06:39.304Z,8.80
2022-11-08T20:09:06.391Z,8.70
2022-11-08T20:11:36.247Z,8.70
2022-11-08T20:14:04.670Z,8.70
2022-11-08T20:16:35.040Z,8.70
2022-11-08T20:19:07.660Z,8.60
2022-11-08T20:21:34.545Z,8.60
2022-11-08T20:24:01.506Z,8.50
2022-11-08T20:26:28.484Z,8.50
2022-11-08T20:28:57.132Z,8.50
2022-11-08T20:31:24.667Z,8.40
2022-11-08T20:33:53.276Z,8.30
2022-11-08T20:36:22.183Z,8.30
2022-11-08T20:38:49.618Z,8.30
2022-11-08T20:41:17.558Z,8.20
2022-11-08T20:43:45.926Z,8.20
2022-11-08T20:46:14.918Z,8.20
2022-11-08T20:48:43.003Z,8.10
2022-11-08T20:51:12.550Z,8.10
2022-11-08T20:53:39.434Z,8.10
2022-11-08T20:56:14.719Z,8.10
2022-11-08T20:58:42.627Z,8.00
2022-11-08T21:01:11.227Z,8.00
2022-11-08T21:03:37.835Z,7.90
2022-11-08T21:06:06.713Z,7.90
2022-11-08T21:11:21.138Z,7.80
2022-11-08T21:13:47.754Z,7.70
2022-11-08T21:16:29.394Z,7.70
2022-11-08T21:18:57.699Z,7.70
2022-11-08T21:21:24.657Z,7.70
2022-11-08T21:23:51.574Z,7.70
2022-11-08T21:26:19.073Z,7.70
2022-11-08T21:28:46.480Z,7.70
2022-11-08T21:31:13.470Z,7.60
2022-11-08T21:33:40.561Z,7.60
2022-11-08T21:36:08.123Z,7.60
2022-11-08T21:38:39.160Z,7.60
2022-11-08T21:41:07.944Z,7.60
2022-11-08T21:43:40.016Z,7.50
2022-11-08T21:46:16.542Z,7.50
2022-11-08T21:48:43.216Z,7.50
2022-11-08T21:51:09.870Z,7.50
2022-11-08T21:53:42.893Z,7.40
2022-11-08T21:56:14.666Z,7.40
2022-11-08T21:58:41.226Z,7.40
2022-11-08T22:01:07.932Z,7.40
2022-11-08T22:03:35.312Z,7.40
2022-11-08T22:06:02.192Z,7.30
2022-11-08T22:08:28.955Z,7.30
2022-11-08T22:10:55.529Z,7.20
2022-11-08T22:13:22.258Z,7.20
2022-11-08T22:15:48.840Z,7.20
2022-11-08T22:18:17.611Z,7.20
2022-11-08T22:20:52.932Z,7.20
2022-11-08T22:23:19.494Z,7.10
2022-11-08T22:25:46.042Z,7.10
2022-11-08T22:28:12.625Z,7.10
2022-11-08T22:30:39.200Z,7.00
2022-11-08T22:33:05.782Z,7.00
2022-11-08T22:35:32.512Z,7.00
2022-11-08T22:37:59.104Z,7.00
2022-11-08T22:40:25.678Z,6.90
2022-11-08T22:42:52.248Z,6.90
2022-11-08T22:45:18.817Z,6.90
2022-11-08T22:47:45.364Z,6.80
2022-11-08T22:50:11.931Z,6.90
2022-11-08T22:52:38.538Z,6.80
2022-11-08T22:55:05.622Z,6.80
2022-11-08T22:57:32.174Z,6.80
2022-11-08T22:59:58.740Z,6.80
2022-11-08T23:02:30.334Z,6.80
2022-11-08T23:04:59.328Z,6.80
2022-11-08T23:07:25.906Z,6.80
2022-11-08T23:09:52.526Z,6.80
2022-11-08T23:12:19.097Z,6.80
2022-11-08T23:14:45.661Z,6.80
2022-11-08T23:17:12.234Z,6.80
2022-11-08T23:19:38.813Z,6.80
2022-11-08T23:22:11.295Z,6.70
2022-11-08T23:24:38.006Z,6.70
2022-11-08T23:27:05.026Z,6.70
2022-11-08T23:29:31.679Z,6.70
2022-11-08T23:31:58.265Z,6.70
2022-11-08T23:34:24.849Z,6.70
2022-11-08T23:36:51.411Z,6.60
2022-11-08T23:39:17.984Z,6.60
2022-11-08T23:41:44.549Z,6.60
2022-11-08T23:44:11.327Z,6.60
2022-11-08T23:46:37.964Z,6.50
2022-11-08T23:49:04.657Z,6.50
2022-11-08T23:51:31.531Z,6.50
2022-11-08T23:53:58.401Z,6.50
2022-11-08T23:56:27.202Z,6.50
2022-11-08T23:58:55.045Z,6.50
